Форум Города N

Информация о пользователе

Привет, Гость! Войдите или зарегистрируйтесь.


Вы здесь » Форум Города N » Black Metal


Black Metal

Тем 481 страница 540 из 540

Тема Ответов Просмотров Последнее сообщение
1 213 2008-05-09 19:11:38  [Synthetic]
482 666 [Black Metal, hun]  MoonTemple
0 68 2008-05-09 16:32:21  MoonTemple
0 80 2008-05-09 16:09:14  MoonTemple
484 Numen [Black/Folk Metal]  MoonTemple
0 66 2008-05-09 02:39:01  MoonTemple
485 Spetälsk [True Black]  MoonTemple
0 70 2008-05-09 00:55:39  MoonTemple
0 71 2008-05-08 23:07:47  MoonTemple
0 94 2008-05-08 22:41:24  MoonTemple
1 211 2008-05-08 20:48:30  dying_inside
0 83 2008-05-08 18:49:04  MoonTemple
490 Morok [Pagan Black Metal]  Gloomyrain
6 509 2008-05-08 13:25:58  кезиво
0 84 2008-05-08 00:43:01  MoonTemple
0 100 2008-05-04 08:13:53  MoonTemple
0 119 2008-05-02 22:30:43  MoonTemple
0 87 2008-05-02 00:55:42  MoonTemple
495 Blackwinds [Black Metal]  Gloomyrain
0 78 2008-04-29 20:55:47  Gloomyrain
1 150 2008-04-26 14:13:57  Gloomyrain
497 Bann [Depressive Black]  MoonTemple
3 134 2008-04-26 14:02:29  HA7tur
498 Sorgsvart [Folk Black]  MoonTemple
1 176 2008-04-25 20:15:34  Tony_colpachNIK
3 175 2008-04-24 22:18:17  HA7tur
1 127 2008-04-24 19:10:33  dying_inside
6 337 2008-04-24 12:48:28  Gloomyrain
0 85 2008-04-22 22:49:50  Gloomyrain
503 Malus [Black Metal, deu]  Indiependent
1 110 2008-04-22 07:36:20  Gloomyrain
1 120 2008-04-18 21:38:14  Gloomyrain
2 173 2008-04-17 09:58:42  Neckrion
0 135 2008-04-17 04:20:30  VedmaK
9 336 2008-04-17 03:14:10  VedmaK
0 94 2008-04-16 05:27:08  Erroneous
0 111 2008-04-12 12:09:07  Gloomyrain
0 111 2008-04-11 22:14:36  Prohaar
0 118 2008-04-09 20:48:51  Erroneous
0 186 2008-04-09 20:22:56  Erroneous
6 311 2008-04-09 01:59:04  SatanGab
15 801 2008-04-06 18:55:45  SatanGab
0 116 2008-04-02 12:01:08  Крыс
516 Forsth [Black Metal, che]  Gloomyrain
7 468 2008-04-01 15:22:46  Gloomyrain
0 101 2008-03-28 16:44:46  Крыс
5 493 2008-03-27 21:08:11  Gloomyrain
9 294 2008-03-26 16:52:34  Gloomyrain
3 189 2008-03-19 06:53:27  Gloomyrain
521 Haemoth [Black]  Neckrion
0 112 2008-03-15 13:48:06  Neckrion
0 104 2008-03-14 18:24:10  Gloomyrain
0 98 2008-03-13 10:27:46  Neckrion
2 172 2008-03-06 14:49:38  Gloomyrain
0 100 2008-03-04 17:09:01  Gloomyrain
0 218 2008-02-26 01:50:07  Крыс
527 Necronoclast [Black Metal]  Indiependent
0 132 2008-02-22 22:51:31  Indiependent
4 1022 2008-02-19 20:34:21  Aka_Virr
0 115 2008-02-14 14:50:07  Gloomyrain
3 306 2008-02-13 21:19:57  dying_inside
9 797 2008-02-09 05:28:50  DasEinhorn
0 309 2008-02-08 23:13:32  Gloomyrain
2 268 2008-02-08 22:24:17  Gloomyrain
0 396 2008-02-05 19:38:17  Крыс
535 Grimm [folk metal]  Tony_colpachNIK
0 291 2008-02-02 21:29:49  Tony_colpachNIK
7 694 2008-02-02 14:50:46  MaXdi Vampire
0 435 2007-12-31 00:54:00  dying_inside
0 316 2007-12-26 20:25:02  gwar13
1 341 2007-12-21 12:38:30  Gloomyrain
540 Drama [Black Metal, rus]  maggot_corpse
0 766 2007-11-26 23:01:55  maggot_corpse

Вы здесь » Форум Города N » Black Metal


Рейтинг форумов | Создать форум бесплатно